Townsend, TN (37882)

12:59 AM EDT on September 21, 2014 (GMT -0400)
Tail of the Dragon at Deals Gap | Change Station
CLOSE
Current Station
Personal Weather Station
Location: Robbinsville, NC
Elevation: 1759 ft
Nearby Weather Stations

Elev 1759 ft 35.47 °N, 83.92 °W | Updated 12 minutes ago

Partly Cloudy
Partly Cloudy
60.6 °F
Feels Like 60.6 °F
N
0.0
Wind Variable Wind from East
Gusts 0.0 mph

Today
High -- | Low -- °F
--% Chance of Precip.
Yesterday
High -- | Low -- °F
Precip. -- in
7:22 AM 7:33 PM
Waning Crescent, 8% visible
Pressure 30.11 in
Visibility 10.0 miles
Clouds Mostly Cloudy 4800 ft
Mostly Cloudy 6000 ft
Dew Point 60 °F
Humidity 96%
Rainfall 0.00 in
Snow Depth Not available.
UV 0 out of 12
Pollen 6.50 out of 12
Air Quality Not available.
Flu Activity Not available.
METAR KRHP 210435Z AUTO 00000KT 10SM BKN048 BKN060 17/16 A3011 RMK AO2 T01650160

More Conditions Fewer Conditions

Pressure 30.11 in
Visibility 10.0 miles
Clouds Mostly Cloudy 4800 ft
Mostly Cloudy 6000 ft
Dew Point 60 °F
Humidity 96%
Rainfall 0.00 in
Snow Depth Not available.
UV 0 out of 12
Pollen 6.50 out of 12
Air Quality Not available.
Flu Activity Not available.
METAR KRHP 210435Z AUTO 00000KT 10SM BKN048 BKN060 17/16 A3011 RMK AO2 T01650160

More Conditions Fewer Conditions

10-Day Weather Forecast

Almanac

Astronomy

Sep. 21, 2014 Rise Set
Actual Time 7:22 AM EDT 7:33 PM EDT
Civil Twilight 6:56 AM EDT 7:58 PM EDT
Nautical Twilight 6:27 AM EDT 8:28 PM EDT
Astronomical Twilight 5:56 AM EDT 8:58 PM EDT
Moon 4:59 AM EDT 6:06 PM EDT
Length of Visible Light 13h 02m
Length of Day
12h 11m
Tomorrow will be 2m 14s shorter.
Waning Crescent, 8% of the Moon is Illuminated
Today
Waning Crescent
Sep 24
New
Oct 1
First Quarter
Oct 8
Full
Oct 15
Last Quarter

Today's Extremes

State Highs State Lows

Community

WunderPhotos

Upload Photos

1,755,086 photos uploaded!

Nearby

Snow Depth

Station Depth Elevation
No new snow has been reported.

Earthquake Activity

City Distance Mag. Time & Date
Sweetwater, Tennessee 36 miles 2.5 3:54 PM EDT
2014-09-20
Minimum magnitude displayed is 2.5.

Coastal Water Temperatures

Place Temperature
No Stations Reporting

Nearby Weather Stations